sensor_id;sensor_type;location;lat;lon;timestamp;P1;durP1;ratioP1;P2;durP2;ratioP2
10463;SDS011;5279;42.048;24.638;2022-09-24T00:01:21;1.97;;;1.87;;
10463;SDS011;5279;42.048;24.638;2022-09-24T00:03:50;1.90;;;1.80;;
10463;SDS011;5279;42.048;24.638;2022-09-24T00:06:18;2.27;;;2.07;;
10463;SDS011;5279;42.048;24.638;2022-09-24T00:08:47;2.87;;;1.97;;
10463;SDS011;5279;42.048;24.638;2022-09-24T00:11:15;1.90;;;1.80;;
10463;SDS011;5279;42.048;24.638;2022-09-24T00:13:45;1.80;;;1.70;;
10463;SDS011;5279;42.048;24.638;2022-09-24T00:16:13;2.10;;;1.90;;
10463;SDS011;5279;42.048;24.638;2022-09-24T00:18:42;1.80;;;1.70;;
10463;SDS011;5279;42.048;24.638;2022-09-24T00:21:13;1.80;;;1.70;;
10463;SDS011;5279;42.048;24.638;2022-09-24T00:23:40;2.00;;;1.90;;
10463;SDS011;5279;42.048;24.638;2022-09-24T00:26:10;1.97;;;1.80;;
10463;SDS011;5279;42.048;24.638;2022-09-24T00:28:55;2.00;;;1.90;;
10463;SDS011;5279;42.048;24.638;2022-09-24T00:31:22;1.70;;;1.60;;
10463;SDS011;5279;42.048;24.638;2022-09-24T00:33:50;2.43;;;1.77;;
10463;SDS011;5279;42.048;24.638;2022-09-24T00:36:17;1.80;;;1.70;;
10463;SDS011;5279;42.048;24.638;2022-09-24T00:38:47;2.17;;;1.90;;
10463;SDS011;5279;42.048;24.638;2022-09-24T00:41:16;2.17;;;2.00;;
10463;SDS011;5279;42.048;24.638;2022-09-24T00:43:45;2.00;;;1.90;;
10463;SDS011;5279;42.048;24.638;2022-09-24T00:46:13;1.90;;;1.80;;
10463;SDS011;5279;42.048;24.638;2022-09-24T00:48:45;2.07;;;1.97;;
10463;SDS011;5279;42.048;24.638;2022-09-24T00:51:14;1.83;;;1.73;;
10463;SDS011;5279;42.048;24.638;2022-09-24T00:53:44;1.83;;;1.73;;
10463;SDS011;5279;42.048;24.638;2022-09-24T00:56:13;2.00;;;1.90;;
10463;SDS011;5279;42.048;24.638;2022-09-24T00:58:44;1.77;;;1.67;;
10463;SDS011;5279;42.048;24.638;2022-09-24T01:01:16;1.80;;;1.70;;
10463;SDS011;5279;42.048;24.638;2022-09-24T01:03:44;2.37;;;1.67;;
10463;SDS011;5279;42.048;24.638;2022-09-24T01:06:12;2.13;;;1.93;;
10463;SDS011;5279;42.048;24.638;2022-09-24T01:08:39;2.17;;;1.70;;
10463;SDS011;5279;42.048;24.638;2022-09-24T01:11:11;1.90;;;1.80;;
10463;SDS011;5279;42.048;24.638;2022-09-24T01:13:53;3.00;;;2.10;;
10463;SDS011;5279;42.048;24.638;2022-09-24T01:16:31;1.70;;;1.60;;
10463;SDS011;5279;42.048;24.638;2022-09-24T01:19:06;1.77;;;1.67;;
10463;SDS011;5279;42.048;24.638;2022-09-24T01:21:43;2.00;;;1.90;;
10463;SDS011;5279;42.048;24.638;2022-09-24T01:27:19;2.00;;;1.87;;
10463;SDS011;5279;42.048;24.638;2022-09-24T01:29:57;2.10;;;1.90;;
10463;SDS011;5279;42.048;24.638;2022-09-24T01:32:29;1.83;;;1.73;;
10463;SDS011;5279;42.048;24.638;2022-09-24T01:35:02;1.97;;;1.87;;
10463;SDS011;5279;42.048;24.638;2022-09-24T01:37:35;1.73;;;1.63;;
10463;SDS011;5279;42.048;24.638;2022-09-24T01:40:06;2.17;;;1.97;;
10463;SDS011;5279;42.048;24.638;2022-09-24T01:42:36;2.30;;;2.10;;
10463;SDS011;5279;42.048;24.638;2022-09-24T01:45:09;1.90;;;1.80;;
10463;SDS011;5279;42.048;24.638;2022-09-24T01:47:37;2.20;;;2.00;;
10463;SDS011;5279;42.048;24.638;2022-09-24T01:50:06;2.00;;;1.90;;
10463;SDS011;5279;42.048;24.638;2022-09-24T01:52:37;2.03;;;1.87;;
10463;SDS011;5279;42.048;24.638;2022-09-24T01:55:09;2.90;;;1.77;;
10463;SDS011;5279;42.048;24.638;2022-09-24T01:57:41;1.87;;;1.77;;
10463;SDS011;5279;42.048;24.638;2022-09-24T02:00:14;1.97;;;1.87;;
10463;SDS011;5279;42.048;24.638;2022-09-24T02:02:43;1.90;;;1.80;;
10463;SDS011;5279;42.048;24.638;2022-09-24T02:05:14;1.80;;;1.70;;
10463;SDS011;5279;42.048;24.638;2022-09-24T02:07:49;1.97;;;1.87;;
10463;SDS011;5279;42.048;24.638;2022-09-24T02:10:23;1.90;;;1.80;;
10463;SDS011;5279;42.048;24.638;2022-09-24T02:12:52;2.13;;;2.03;;
10463;SDS011;5279;42.048;24.638;2022-09-24T02:15:30;2.70;;;1.80;;
10463;SDS011;5279;42.048;24.638;2022-09-24T02:18:01;2.20;;;2.00;;
10463;SDS011;5279;42.048;24.638;2022-09-24T02:20:31;1.87;;;1.77;;
10463;SDS011;5279;42.048;24.638;2022-09-24T02:23:01;1.90;;;1.80;;
10463;SDS011;5279;42.048;24.638;2022-09-24T02:25:30;1.90;;;1.80;;
10463;SDS011;5279;42.048;24.638;2022-09-24T02:28:03;1.87;;;1.77;;
10463;SDS011;5279;42.048;24.638;2022-09-24T02:30:31;2.07;;;1.97;;
10463;SDS011;5279;42.048;24.638;2022-09-24T02:33:03;2.00;;;1.90;;
10463;SDS011;5279;42.048;24.638;2022-09-24T02:35:53;1.80;;;1.70;;
10463;SDS011;5279;42.048;24.638;2022-09-24T02:38:19;2.57;;;1.93;;
10463;SDS011;5279;42.048;24.638;2022-09-24T02:40:46;2.80;;;2.00;;
10463;SDS011;5279;42.048;24.638;2022-09-24T02:43:14;1.57;;;1.47;;
10463;SDS011;5279;42.048;24.638;2022-09-24T02:45:42;1.70;;;1.60;;
10463;SDS011;5279;42.048;24.638;2022-09-24T02:48:09;2.07;;;1.97;;
10463;SDS011;5279;42.048;24.638;2022-09-24T02:50:36;1.80;;;1.70;;
10463;SDS011;5279;42.048;24.638;2022-09-24T02:53:03;2.00;;;1.90;;
10463;SDS011;5279;42.048;24.638;2022-09-24T02:55:30;1.60;;;1.50;;
10463;SDS011;5279;42.048;24.638;2022-09-24T02:57:57;1.97;;;1.70;;
10463;SDS011;5279;42.048;24.638;2022-09-24T03:00:24;1.93;;;1.80;;
10463;SDS011;5279;42.048;24.638;2022-09-24T03:02:52;1.80;;;1.70;;
10463;SDS011;5279;42.048;24.638;2022-09-24T03:05:19;1.70;;;1.60;;
10463;SDS011;5279;42.048;24.638;2022-09-24T03:07:46;1.80;;;1.70;;
10463;SDS011;5279;42.048;24.638;2022-09-24T03:10:14;2.17;;;1.97;;
10463;SDS011;5279;42.048;24.638;2022-09-24T03:12:41;1.87;;;1.77;;
10463;SDS011;5279;42.048;24.638;2022-09-24T03:15:08;1.80;;;1.70;;
10463;SDS011;5279;42.048;24.638;2022-09-24T03:17:36;2.20;;;1.70;;
10463;SDS011;5279;42.048;24.638;2022-09-24T03:20:05;1.93;;;1.83;;
10463;SDS011;5279;42.048;24.638;2022-09-24T03:22:32;1.80;;;1.70;;
10463;SDS011;5279;42.048;24.638;2022-09-24T03:24:59;2.03;;;1.80;;
10463;SDS011;5279;42.048;24.638;2022-09-24T03:27:27;2.30;;;2.10;;
10463;SDS011;5279;42.048;24.638;2022-09-24T03:29:54;2.00;;;1.80;;
10463;SDS011;5279;42.048;24.638;2022-09-24T03:32:38;1.83;;;1.63;;
10463;SDS011;5279;42.048;24.638;2022-09-24T03:35:06;1.80;;;1.70;;
10463;SDS011;5279;42.048;24.638;2022-09-24T03:37:35;2.10;;;2.00;;
10463;SDS011;5279;42.048;24.638;2022-09-24T03:40:02;3.33;;;1.90;;
10463;SDS011;5279;42.048;24.638;2022-09-24T03:42:30;2.03;;;1.70;;
10463;SDS011;5279;42.048;24.638;2022-09-24T03:44:58;2.00;;;1.90;;
10463;SDS011;5279;42.048;24.638;2022-09-24T03:47:25;2.10;;;1.80;;
10463;SDS011;5279;42.048;24.638;2022-09-24T03:49:52;1.93;;;1.83;;
10463;SDS011;5279;42.048;24.638;2022-09-24T03:52:21;1.97;;;1.80;;
10463;SDS011;5279;42.048;24.638;2022-09-24T03:54:48;1.90;;;1.77;;
10463;SDS011;5279;42.048;24.638;2022-09-24T03:57:15;1.80;;;1.70;;
10463;SDS011;5279;42.048;24.638;2022-09-24T03:59:42;1.80;;;1.67;;
10463;SDS011;5279;42.048;24.638;2022-09-24T04:02:10;1.90;;;1.80;;
10463;SDS011;5279;42.048;24.638;2022-09-24T04:04:37;2.20;;;2.00;;
10463;SDS011;5279;42.048;24.638;2022-09-24T04:07:04;2.00;;;1.90;;
10463;SDS011;5279;42.048;24.638;2022-09-24T04:09:32;2.00;;;1.90;;
10463;SDS011;5279;42.048;24.638;2022-09-24T04:11:59;2.07;;;1.97;;
10463;SDS011;5279;42.048;24.638;2022-09-24T04:14:26;1.90;;;1.80;;
10463;SDS011;5279;42.048;24.638;2022-09-24T04:16:53;1.93;;;1.70;;
10463;SDS011;5279;42.048;24.638;2022-09-24T04:19:20;1.80;;;1.70;;
10463;SDS011;5279;42.048;24.638;2022-09-24T04:21:47;1.97;;;1.87;;
10463;SDS011;5279;42.048;24.638;2022-09-24T04:24:14;2.20;;;2.10;;
10463;SDS011;5279;42.048;24.638;2022-09-24T04:26:42;2.47;;;1.87;;
10463;SDS011;5279;42.048;24.638;2022-09-24T04:29:09;2.27;;;2.07;;
10463;SDS011;5279;42.048;24.638;2022-09-24T04:31:37;2.20;;;2.10;;
10463;SDS011;5279;42.048;24.638;2022-09-24T04:34:04;2.23;;;2.03;;
10463;SDS011;5279;42.048;24.638;2022-09-24T04:36:31;2.30;;;2.20;;
10463;SDS011;5279;42.048;24.638;2022-09-24T04:38:58;2.20;;;2.00;;
10463;SDS011;5279;42.048;24.638;2022-09-24T04:41:27;2.00;;;1.90;;
10463;SDS011;5279;42.048;24.638;2022-09-24T04:43:56;2.60;;;2.20;;
10463;SDS011;5279;42.048;24.638;2022-09-24T04:46:23;2.00;;;1.90;;
10463;SDS011;5279;42.048;24.638;2022-09-24T04:48:50;2.10;;;2.00;;
10463;SDS011;5279;42.048;24.638;2022-09-24T04:51:17;2.50;;;2.30;;
10463;SDS011;5279;42.048;24.638;2022-09-24T04:53:45;1.80;;;1.70;;
10463;SDS011;5279;42.048;24.638;2022-09-24T04:56:14;3.40;;;1.87;;
10463;SDS011;5279;42.048;24.638;2022-09-24T04:58:41;2.20;;;1.93;;
10463;SDS011;5279;42.048;24.638;2022-09-24T05:01:10;2.17;;;1.97;;
10463;SDS011;5279;42.048;24.638;2022-09-24T05:03:38;2.10;;;2.00;;
10463;SDS011;5279;42.048;24.638;2022-09-24T05:06:05;1.90;;;1.80;;
10463;SDS011;5279;42.048;24.638;2022-09-24T05:08:32;2.30;;;2.10;;
10463;SDS011;5279;42.048;24.638;2022-09-24T05:10:59;2.00;;;1.87;;
10463;SDS011;5279;42.048;24.638;2022-09-24T05:13:26;3.20;;;2.40;;
10463;SDS011;5279;42.048;24.638;2022-09-24T05:15:53;2.40;;;2.10;;
10463;SDS011;5279;42.048;24.638;2022-09-24T05:18:21;2.03;;;1.93;;
10463;SDS011;5279;42.048;24.638;2022-09-24T05:20:48;1.90;;;1.80;;
10463;SDS011;5279;42.048;24.638;2022-09-24T05:23:16;1.97;;;1.87;;
10463;SDS011;5279;42.048;24.638;2022-09-24T05:25:43;2.97;;;1.90;;
10463;SDS011;5279;42.048;24.638;2022-09-24T05:28:28;2.20;;;2.07;;
10463;SDS011;5279;42.048;24.638;2022-09-24T05:30:57;2.13;;;1.90;;
10463;SDS011;5279;42.048;24.638;2022-09-24T05:33:26;3.47;;;2.13;;
10463;SDS011;5279;42.048;24.638;2022-09-24T05:35:53;1.80;;;1.70;;
10463;SDS011;5279;42.048;24.638;2022-09-24T05:38:20;2.53;;;2.20;;
10463;SDS011;5279;42.048;24.638;2022-09-24T05:40:47;2.17;;;2.00;;
10463;SDS011;5279;42.048;24.638;2022-09-24T05:43:14;2.83;;;2.00;;
10463;SDS011;5279;42.048;24.638;2022-09-24T05:45:43;2.00;;;1.90;;
10463;SDS011;5279;42.048;24.638;2022-09-24T05:48:10;1.90;;;1.80;;
10463;SDS011;5279;42.048;24.638;2022-09-24T05:50:39;2.10;;;2.00;;
10463;SDS011;5279;42.048;24.638;2022-09-24T05:53:06;2.00;;;1.80;;
10463;SDS011;5279;42.048;24.638;2022-09-24T05:55:33;1.90;;;1.80;;
10463;SDS011;5279;42.048;24.638;2022-09-24T05:58:01;1.90;;;1.80;;
10463;SDS011;5279;42.048;24.638;2022-09-24T06:00:30;3.10;;;1.70;;
10463;SDS011;5279;42.048;24.638;2022-09-24T06:03:01;2.47;;;1.63;;
10463;SDS011;5279;42.048;24.638;2022-09-24T06:05:30;2.23;;;1.77;;
10463;SDS011;5279;42.048;24.638;2022-09-24T06:08:01;1.90;;;1.80;;
10463;SDS011;5279;42.048;24.638;2022-09-24T06:10:28;1.87;;;1.57;;
10463;SDS011;5279;42.048;24.638;2022-09-24T06:12:54;1.80;;;1.70;;
10463;SDS011;5279;42.048;24.638;2022-09-24T06:15:21;1.70;;;1.60;;
10463;SDS011;5279;42.048;24.638;2022-09-24T06:17:51;1.87;;;1.77;;
10463;SDS011;5279;42.048;24.638;2022-09-24T06:20:22;1.70;;;1.50;;
10463;SDS011;5279;42.048;24.638;2022-09-24T06:22:50;1.67;;;1.57;;
10463;SDS011;5279;42.048;24.638;2022-09-24T06:25:21;1.57;;;1.47;;
10463;SDS011;5279;42.048;24.638;2022-09-24T06:27:51;2.73;;;2.20;;
10463;SDS011;5279;42.048;24.638;2022-09-24T06:30:24;2.20;;;2.00;;
10463;SDS011;5279;42.048;24.638;2022-09-24T06:32:51;3.47;;;2.03;;
10463;SDS011;5279;42.048;24.638;2022-09-24T06:35:19;2.17;;;1.97;;
10463;SDS011;5279;42.048;24.638;2022-09-24T06:37:46;1.93;;;1.80;;
10463;SDS011;5279;42.048;24.638;2022-09-24T06:40:13;5.20;;;2.00;;
10463;SDS011;5279;42.048;24.638;2022-09-24T06:42:42;3.10;;;1.80;;
10463;SDS011;5279;42.048;24.638;2022-09-24T06:45:09;2.80;;;2.20;;
10463;SDS011;5279;42.048;24.638;2022-09-24T06:47:37;5.33;;;2.03;;
10463;SDS011;5279;42.048;24.638;2022-09-24T06:50:04;1.80;;;1.70;;
10463;SDS011;5279;42.048;24.638;2022-09-24T06:52:33;2.03;;;1.93;;
10463;SDS011;5279;42.048;24.638;2022-09-24T06:55:00;2.43;;;1.93;;
10463;SDS011;5279;42.048;24.638;2022-09-24T06:57:27;2.97;;;1.80;;
10463;SDS011;5279;42.048;24.638;2022-09-24T06:59:55;2.07;;;1.70;;
10463;SDS011;5279;42.048;24.638;2022-09-24T07:02:22;2.60;;;2.20;;
10463;SDS011;5279;42.048;24.638;2022-09-24T07:04:49;2.37;;;1.80;;
10463;SDS011;5279;42.048;24.638;2022-09-24T07:07:16;1.60;;;1.50;;
10463;SDS011;5279;42.048;24.638;2022-09-24T07:09:58;1.80;;;1.70;;
10463;SDS011;5279;42.048;24.638;2022-09-24T07:12:27;2.40;;;2.00;;
10463;SDS011;5279;42.048;24.638;2022-09-24T07:14:56;1.90;;;1.80;;
10463;SDS011;5279;42.048;24.638;2022-09-24T07:17:23;1.60;;;1.50;;
10463;SDS011;5279;42.048;24.638;2022-09-24T07:19:50;3.47;;;1.73;;
10463;SDS011;5279;42.048;24.638;2022-09-24T07:22:17;1.57;;;1.47;;
10463;SDS011;5279;42.048;24.638;2022-09-24T07:24:44;2.10;;;1.70;;
10463;SDS011;5279;42.048;24.638;2022-09-24T07:27:12;1.80;;;1.70;;
10463;SDS011;5279;42.048;24.638;2022-09-24T07:29:39;3.40;;;1.70;;
10463;SDS011;5279;42.048;24.638;2022-09-24T07:32:08;2.03;;;1.90;;
10463;SDS011;5279;42.048;24.638;2022-09-24T07:34:34;1.70;;;1.60;;
10463;SDS011;5279;42.048;24.638;2022-09-24T07:37:01;3.47;;;1.90;;
10463;SDS011;5279;42.048;24.638;2022-09-24T07:39:28;5.13;;;1.93;;
10463;SDS011;5279;42.048;24.638;2022-09-24T07:41:55;2.00;;;1.80;;
10463;SDS011;5279;42.048;24.638;2022-09-24T07:44:22;4.60;;;1.80;;
10463;SDS011;5279;42.048;24.638;2022-09-24T07:46:49;1.70;;;1.57;;
10463;SDS011;5279;42.048;24.638;2022-09-24T07:49:17;2.30;;;1.90;;
10463;SDS011;5279;42.048;24.638;2022-09-24T07:51:44;2.23;;;1.50;;
10463;SDS011;5279;42.048;24.638;2022-09-24T07:54:11;2.00;;;1.90;;
10463;SDS011;5279;42.048;24.638;2022-09-24T07:56:39;2.90;;;2.00;;
10463;SDS011;5279;42.048;24.638;2022-09-24T07:59:05;2.60;;;1.90;;
10463;SDS011;5279;42.048;24.638;2022-09-24T08:01:35;2.30;;;1.73;;
10463;SDS011;5279;42.048;24.638;2022-09-24T08:04:02;1.90;;;1.60;;
10463;SDS011;5279;42.048;24.638;2022-09-24T08:06:32;2.00;;;1.80;;
10463;SDS011;5279;42.048;24.638;2022-09-24T08:09:00;1.67;;;1.57;;
10463;SDS011;5279;42.048;24.638;2022-09-24T08:11:27;3.27;;;1.73;;
10463;SDS011;5279;42.048;24.638;2022-09-24T08:13:55;4.10;;;1.63;;
10463;SDS011;5279;42.048;24.638;2022-09-24T08:16:22;1.60;;;1.50;;
10463;SDS011;5279;42.048;24.638;2022-09-24T08:18:50;1.53;;;1.43;;
10463;SDS011;5279;42.048;24.638;2022-09-24T08:21:18;2.43;;;1.60;;
10463;SDS011;5279;42.048;24.638;2022-09-24T08:23:46;2.07;;;1.30;;
10463;SDS011;5279;42.048;24.638;2022-09-24T08:26:13;1.20;;;1.10;;
10463;SDS011;5279;42.048;24.638;2022-09-24T08:28:40;1.20;;;0.97;;
10463;SDS011;5279;42.048;24.638;2022-09-24T08:31:07;1.07;;;1.07;;
10463;SDS011;5279;42.048;24.638;2022-09-24T08:33:37;1.20;;;1.10;;
10463;SDS011;5279;42.048;24.638;2022-09-24T08:36:05;7.40;;;1.50;;
10463;SDS011;5279;42.048;24.638;2022-09-24T08:38:33;1.33;;;1.00;;
10463;SDS011;5279;42.048;24.638;2022-09-24T08:41:06;3.30;;;1.37;;
10463;SDS011;5279;42.048;24.638;2022-09-24T08:43:48;1.10;;;1.10;;
10463;SDS011;5279;42.048;24.638;2022-09-24T08:46:23;1.73;;;1.37;;
10463;SDS011;5279;42.048;24.638;2022-09-24T08:49:11;3.17;;;1.40;;
10463;SDS011;5279;42.048;24.638;2022-09-24T08:51:43;4.73;;;1.10;;
10463;SDS011;5279;42.048;24.638;2022-09-24T08:54:15;1.40;;;1.30;;
10463;SDS011;5279;42.048;24.638;2022-09-24T08:56:45;1.20;;;1.20;;
10463;SDS011;5279;42.048;24.638;2022-09-24T08:59:15;1.40;;;1.30;;
10463;SDS011;5279;42.048;24.638;2022-09-24T09:01:52;1.47;;;1.20;;
10463;SDS011;5279;42.048;24.638;2022-09-24T09:04:27;1.60;;;1.47;;
10463;SDS011;5279;42.048;24.638;2022-09-24T09:07:07;2.33;;;1.10;;
10463;SDS011;5279;42.048;24.638;2022-09-24T09:09:41;1.50;;;1.40;;
10463;SDS011;5279;42.048;24.638;2022-09-24T09:12:16;1.90;;;1.30;;
10463;SDS011;5279;42.048;24.638;2022-09-24T09:14:48;1.50;;;1.40;;
10463;SDS011;5279;42.048;24.638;2022-09-24T09:17:26;1.73;;;1.40;;
10463;SDS011;5279;42.048;24.638;2022-09-24T09:19:58;1.50;;;1.40;;
10463;SDS011;5279;42.048;24.638;2022-09-24T09:22:29;2.25;;;1.45;;
10463;SDS011;5279;42.048;24.638;2022-09-24T09:25:03;1.67;;;1.10;;
10463;SDS011;5279;42.048;24.638;2022-09-24T09:27:43;2.05;;;1.30;;
10463;SDS011;5279;42.048;24.638;2022-09-24T09:30:12;1.50;;;1.35;;
10463;SDS011;5279;42.048;24.638;2022-09-24T09:32:47;1.60;;;1.50;;
10463;SDS011;5279;42.048;24.638;2022-09-24T09:35:33;1.85;;;1.25;;
10463;SDS011;5279;42.048;24.638;2022-09-24T09:38:09;1.67;;;1.05;;
10463;SDS011;5279;42.048;24.638;2022-09-24T09:40:48;1.10;;;1.10;;
10463;SDS011;5279;42.048;24.638;2022-09-24T09:43:24;1.17;;;1.17;;
10463;SDS011;5279;42.048;24.638;2022-09-24T09:45:55;1.25;;;1.10;;
10463;SDS011;5279;42.048;24.638;2022-09-24T09:48:36;1.30;;;1.20;;
10463;SDS011;5279;42.048;24.638;2022-09-24T09:51:09;1.00;;;1.00;;
10463;SDS011;5279;42.048;24.638;2022-09-24T09:53:51;1.30;;;1.13;;
10463;SDS011;5279;42.048;24.638;2022-09-24T09:56:21;0.85;;;0.82;;
10463;SDS011;5279;42.048;24.638;2022-09-24T09:58:51;1.00;;;1.00;;
10463;SDS011;5279;42.048;24.638;2022-09-24T10:01:30;1.38;;;1.13;;
10463;SDS011;5279;42.048;24.638;2022-09-24T10:03:58;1.13;;;1.10;;
10463;SDS011;5279;42.048;24.638;2022-09-24T10:06:44;1.40;;;1.30;;
10463;SDS011;5279;42.048;24.638;2022-09-24T10:09:11;1.05;;;1.00;;
10463;SDS011;5279;42.048;24.638;2022-09-24T10:11:40;1.10;;;1.00;;
10463;SDS011;5279;42.048;24.638;2022-09-24T10:14:10;1.27;;;1.20;;
10463;SDS011;5279;42.048;24.638;2022-09-24T10:16:39;1.73;;;1.30;;
10463;SDS011;5279;42.048;24.638;2022-09-24T10:19:13;0.93;;;0.93;;
10463;SDS011;5279;42.048;24.638;2022-09-24T10:21:42;1.02;;;1.00;;
10463;SDS011;5279;42.048;24.638;2022-09-24T10:24:11;1.45;;;1.10;;
10463;SDS011;5279;42.048;24.638;2022-09-24T10:26:43;1.60;;;1.10;;
10463;SDS011;5279;42.048;24.638;2022-09-24T10:29:15;1.80;;;1.00;;
10463;SDS011;5279;42.048;24.638;2022-09-24T10:32:01;3.35;;;1.20;;
10463;SDS011;5279;42.048;24.638;2022-09-24T10:34:28;1.48;;;0.90;;
10463;SDS011;5279;42.048;24.638;2022-09-24T10:36:59;3.03;;;1.30;;
10463;SDS011;5279;42.048;24.638;2022-09-24T10:39:27;2.15;;;1.10;;
10463;SDS011;5279;42.048;24.638;2022-09-24T10:41:55;1.30;;;1.20;;
10463;SDS011;5279;42.048;24.638;2022-09-24T10:44:25;1.05;;;0.95;;
10463;SDS011;5279;42.048;24.638;2022-09-24T10:47:15;1.60;;;1.02;;
10463;SDS011;5279;42.048;24.638;2022-09-24T10:49:53;1.02;;;0.95;;
10463;SDS011;5279;42.048;24.638;2022-09-24T10:52:38;2.78;;;1.02;;
10463;SDS011;5279;42.048;24.638;2022-09-24T10:55:14;3.30;;;1.20;;
10463;SDS011;5279;42.048;24.638;2022-09-24T10:57:51;1.08;;;1.08;;
10463;SDS011;5279;42.048;24.638;2022-09-24T11:00:29;1.00;;;1.00;;
10463;SDS011;5279;42.048;24.638;2022-09-24T11:03:07;2.40;;;1.05;;
10463;SDS011;5279;42.048;24.638;2022-09-24T11:06:04;1.02;;;0.98;;
10463;SDS011;5279;42.048;24.638;2022-09-24T11:08:48;1.48;;;0.98;;
10463;SDS011;5279;42.048;24.638;2022-09-24T11:11:27;1.00;;;1.00;;
10463;SDS011;5279;42.048;24.638;2022-09-24T11:14:07;1.17;;;0.90;;
10463;SDS011;5279;42.048;24.638;2022-09-24T11:16:52;2.47;;;1.27;;
10463;SDS011;5279;42.048;24.638;2022-09-24T11:19:40;1.15;;;1.10;;
10463;SDS011;5279;42.048;24.638;2022-09-24T11:22:19;1.00;;;1.00;;
10463;SDS011;5279;42.048;24.638;2022-09-24T11:24:59;0.98;;;0.98;;
10463;SDS011;5279;42.048;24.638;2022-09-24T11:27:44;1.10;;;1.00;;
10463;SDS011;5279;42.048;24.638;2022-09-24T11:30:21;1.85;;;1.00;;
10463;SDS011;5279;42.048;24.638;2022-09-24T11:32:55;1.83;;;1.13;;
10463;SDS011;5279;42.048;24.638;2022-09-24T11:35:40;1.48;;;1.33;;
10463;SDS011;5279;42.048;24.638;2022-09-24T11:38:20;2.20;;;0.95;;
10463;SDS011;5279;42.048;24.638;2022-09-24T11:41:03;1.85;;;1.00;;
10463;SDS011;5279;42.048;24.638;2022-09-24T11:43:46;1.20;;;1.10;;
10463;SDS011;5279;42.048;24.638;2022-09-24T11:46:32;1.00;;;1.00;;
10463;SDS011;5279;42.048;24.638;2022-09-24T11:52:23;0.90;;;0.90;;
10463;SDS011;5279;42.048;24.638;2022-09-24T11:54:59;0.95;;;0.88;;
10463;SDS011;5279;42.048;24.638;2022-09-24T11:57:31;1.17;;;1.02;;
10463;SDS011;5279;42.048;24.638;2022-09-24T12:00:03;0.98;;;0.90;;
10463;SDS011;5279;42.048;24.638;2022-09-24T12:02:33;1.23;;;1.08;;
10463;SDS011;5279;42.048;24.638;2022-09-24T12:05:06;0.95;;;0.95;;
10463;SDS011;5279;42.048;24.638;2022-09-24T12:07:41;1.00;;;1.00;;
10463;SDS011;5279;42.048;24.638;2022-09-24T12:10:23;1.05;;;1.02;;
10463;SDS011;5279;42.048;24.638;2022-09-24T12:12:56;1.63;;;1.00;;
10463;SDS011;5279;42.048;24.638;2022-09-24T12:15:40;1.27;;;1.02;;
10463;SDS011;5279;42.048;24.638;2022-09-24T12:18:13;1.02;;;1.00;;
10463;SDS011;5279;42.048;24.638;2022-09-24T12:20:47;1.70;;;1.10;;
10463;SDS011;5279;42.048;24.638;2022-09-24T12:23:19;0.80;;;0.80;;
10463;SDS011;5279;42.048;24.638;2022-09-24T12:25:52;1.58;;;1.00;;
10463;SDS011;5279;42.048;24.638;2022-09-24T12:28:22;1.40;;;1.00;;
10463;SDS011;5279;42.048;24.638;2022-09-24T12:31:10;1.80;;;1.10;;
10463;SDS011;5279;42.048;24.638;2022-09-24T12:34:01;1.10;;;1.05;;
10463;SDS011;5279;42.048;24.638;2022-09-24T12:36:37;1.10;;;1.00;;
10463;SDS011;5279;42.048;24.638;2022-09-24T12:39:18;1.30;;;1.20;;
10463;SDS011;5279;42.048;24.638;2022-09-24T12:41:48;0.90;;;0.90;;
10463;SDS011;5279;42.048;24.638;2022-09-24T12:44:22;1.10;;;1.00;;
10463;SDS011;5279;42.048;24.638;2022-09-24T12:46:55;1.85;;;1.10;;
10463;SDS011;5279;42.048;24.638;2022-09-24T12:49:27;3.53;;;1.30;;
10463;SDS011;5279;42.048;24.638;2022-09-24T12:51:59;0.95;;;0.95;;
10463;SDS011;5279;42.048;24.638;2022-09-24T12:54:29;1.10;;;1.10;;
10463;SDS011;5279;42.048;24.638;2022-09-24T12:57:05;1.00;;;1.00;;
10463;SDS011;5279;42.048;24.638;2022-09-24T12:59:44;1.25;;;1.10;;
10463;SDS011;5279;42.048;24.638;2022-09-24T13:02:14;2.35;;;1.20;;
10463;SDS011;5279;42.048;24.638;2022-09-24T13:04:49;1.38;;;0.95;;
10463;SDS011;5279;42.048;24.638;2022-09-24T13:07:32;2.45;;;1.50;;
10463;SDS011;5279;42.048;24.638;2022-09-24T13:10:11;2.20;;;1.30;;
10463;SDS011;5279;42.048;24.638;2022-09-24T13:12:47;2.53;;;1.10;;
10463;SDS011;5279;42.048;24.638;2022-09-24T13:15:20;1.10;;;1.10;;
10463;SDS011;5279;42.048;24.638;2022-09-24T13:17:58;1.23;;;1.13;;
10463;SDS011;5279;42.048;24.638;2022-09-24T13:20:31;1.02;;;1.02;;
10463;SDS011;5279;42.048;24.638;2022-09-24T13:23:11;1.27;;;1.17;;
10463;SDS011;5279;42.048;24.638;2022-09-24T13:25:56;1.30;;;1.20;;
10463;SDS011;5279;42.048;24.638;2022-09-24T13:28:24;1.08;;;0.98;;
10463;SDS011;5279;42.048;24.638;2022-09-24T13:30:54;1.05;;;1.05;;
10463;SDS011;5279;42.048;24.638;2022-09-24T13:33:28;1.42;;;1.33;;
10463;SDS011;5279;42.048;24.638;2022-09-24T13:36:09;3.00;;;1.25;;
10463;SDS011;5279;42.048;24.638;2022-09-24T13:38:43;2.88;;;1.15;;
10463;SDS011;5279;42.048;24.638;2022-09-24T13:41:21;2.92;;;2.42;;
10463;SDS011;5279;42.048;24.638;2022-09-24T13:43:55;1.80;;;1.70;;
10463;SDS011;5279;42.048;24.638;2022-09-24T13:46:26;3.63;;;2.03;;
10463;SDS011;5279;42.048;24.638;2022-09-24T13:48:55;1.35;;;1.25;;
10463;SDS011;5279;42.048;24.638;2022-09-24T13:51:27;1.63;;;1.50;;
10463;SDS011;5279;42.048;24.638;2022-09-24T13:54:01;1.38;;;1.27;;
10463;SDS011;5279;42.048;24.638;2022-09-24T13:56:33;4.65;;;1.42;;
10463;SDS011;5279;42.048;24.638;2022-09-24T13:59:03;3.53;;;1.30;;
10463;SDS011;5279;42.048;24.638;2022-09-24T14:01:34;1.40;;;1.30;;
10463;SDS011;5279;42.048;24.638;2022-09-24T14:04:05;3.33;;;1.52;;
10463;SDS011;5279;42.048;24.638;2022-09-24T14:06:40;2.00;;;1.50;;
10463;SDS011;5279;42.048;24.638;2022-09-24T14:09:14;2.60;;;1.20;;
10463;SDS011;5279;42.048;24.638;2022-09-24T14:11:50;1.60;;;1.50;;
10463;SDS011;5279;42.048;24.638;2022-09-24T14:14:18;1.60;;;1.50;;
10463;SDS011;5279;42.048;24.638;2022-09-24T14:16:47;2.00;;;1.37;;
10463;SDS011;5279;42.048;24.638;2022-09-24T14:19:14;1.40;;;1.30;;
10463;SDS011;5279;42.048;24.638;2022-09-24T14:21:42;4.10;;;1.50;;
10463;SDS011;5279;42.048;24.638;2022-09-24T14:24:16;2.30;;;1.60;;
10463;SDS011;5279;42.048;24.638;2022-09-24T14:26:46;2.00;;;1.70;;
10463;SDS011;5279;42.048;24.638;2022-09-24T14:29:17;2.50;;;1.70;;
10463;SDS011;5279;42.048;24.638;2022-09-24T14:31:50;2.17;;;1.40;;
10463;SDS011;5279;42.048;24.638;2022-09-24T14:34:24;2.47;;;1.33;;
10463;SDS011;5279;42.048;24.638;2022-09-24T14:36:53;2.33;;;1.40;;
10463;SDS011;5279;42.048;24.638;2022-09-24T14:39:24;1.50;;;1.40;;
10463;SDS011;5279;42.048;24.638;2022-09-24T14:41:53;1.80;;;1.37;;
10463;SDS011;5279;42.048;24.638;2022-09-24T14:44:23;2.87;;;1.67;;
10463;SDS011;5279;42.048;24.638;2022-09-24T14:46:52;3.40;;;1.60;;
10463;SDS011;5279;42.048;24.638;2022-09-24T14:49:23;1.70;;;1.60;;
10463;SDS011;5279;42.048;24.638;2022-09-24T14:51:53;2.83;;;1.70;;
10463;SDS011;5279;42.048;24.638;2022-09-24T14:54:30;4.53;;;2.17;;
10463;SDS011;5279;42.048;24.638;2022-09-24T14:57:09;2.73;;;1.90;;
10463;SDS011;5279;42.048;24.638;2022-09-24T14:59:37;2.27;;;1.90;;
10463;SDS011;5279;42.048;24.638;2022-09-24T15:02:11;3.60;;;2.03;;
10463;SDS011;5279;42.048;24.638;2022-09-24T15:04:43;3.37;;;2.03;;
10463;SDS011;5279;42.048;24.638;2022-09-24T15:07:15;2.13;;;1.67;;
10463;SDS011;5279;42.048;24.638;2022-09-24T15:09:49;1.80;;;1.70;;
10463;SDS011;5279;42.048;24.638;2022-09-24T15:12:18;1.60;;;1.50;;
10463;SDS011;5279;42.048;24.638;2022-09-24T15:14:52;2.57;;;1.70;;
10463;SDS011;5279;42.048;24.638;2022-09-24T15:17:20;2.07;;;1.80;;
10463;SDS011;5279;42.048;24.638;2022-09-24T15:19:48;2.93;;;2.00;;